createdAt,value
2023-03-04T00:02:15.657Z,12.60
2023-03-04T00:04:42.442Z,12.50
2023-03-04T00:07:09.139Z,12.70
2023-03-04T00:09:35.767Z,12.70
2023-03-04T00:12:02.434Z,12.80
2023-03-04T00:14:30.528Z,12.60
2023-03-04T00:16:57.397Z,12.50
2023-03-04T00:19:24.177Z,12.40
2023-03-04T00:21:50.783Z,12.30
2023-03-04T00:24:17.436Z,12.50
2023-03-04T00:26:44.117Z,12.30
2023-03-04T00:29:10.791Z,11.80
2023-03-04T00:31:37.612Z,11.50
2023-03-04T00:34:04.331Z,11.80
2023-03-04T00:36:31.001Z,12.00
2023-03-04T00:38:57.663Z,12.20
2023-03-04T00:41:24.343Z,12.40
2023-03-04T00:43:51.142Z,12.20
2023-03-04T00:46:17.828Z,12.00
2023-03-04T00:48:44.499Z,12.20
2023-03-04T00:51:11.152Z,12.70
2023-03-04T00:53:37.775Z,12.60
2023-03-04T00:56:04.672Z,12.70
2023-03-04T00:58:31.661Z,12.30
2023-03-04T01:00:58.837Z,12.20
2023-03-04T01:03:26.815Z,12.20
2023-03-04T01:05:53.407Z,12.30
2023-03-04T01:08:20.008Z,12.00
2023-03-04T01:10:48.427Z,11.70
2023-03-04T01:13:15.019Z,11.60
2023-03-04T01:15:42.538Z,11.70
2023-03-04T01:18:09.561Z,12.10
2023-03-04T01:20:36.221Z,11.90
2023-03-04T01:23:02.822Z,12.00
2023-03-04T01:25:29.417Z,12.20
2023-03-04T01:27:56.082Z,12.20
2023-03-04T01:30:22.710Z,11.90
2023-03-04T01:32:49.332Z,12.00
2023-03-04T01:35:16.640Z,11.90
2023-03-04T01:37:43.226Z,11.90
2023-03-04T01:40:10.497Z,11.80
2023-03-04T01:42:38.077Z,12.30
2023-03-04T01:45:07.304Z,12.40
2023-03-04T01:47:35.789Z,12.70
2023-03-04T01:50:11.435Z,12.50
2023-03-04T01:52:40.792Z,12.40
2023-03-04T01:55:16.205Z,12.50
2023-03-04T01:57:42.914Z,12.50
2023-03-04T02:00:23.880Z,12.30
2023-03-04T02:02:54.069Z,12.20
2023-03-04T02:05:22.243Z,12.20
2023-03-04T02:07:49.989Z,12.40
2023-03-04T02:10:16.724Z,12.40
2023-03-04T02:12:44.699Z,12.30
2023-03-04T02:15:11.801Z,12.50
2023-03-04T02:17:38.566Z,12.60
2023-03-04T02:20:20.187Z,12.50
2023-03-04T02:22:59.415Z,12.60
2023-03-04T02:25:35.705Z,12.50
2023-03-04T02:28:02.937Z,12.40
2023-03-04T02:30:30.182Z,12.40
2023-03-04T02:32:57.013Z,12.40
2023-03-04T02:35:23.651Z,12.40
2023-03-04T02:37:50.272Z,12.40
2023-03-04T02:40:38.924Z,12.40
2023-03-04T02:43:06.388Z,12.50
2023-03-04T02:45:45.195Z,12.70
2023-03-04T02:48:12.914Z,12.50
2023-03-04T02:50:46.368Z,12.40
2023-03-04T02:53:13.140Z,12.30
2023-03-04T02:55:39.796Z,12.50
2023-03-04T02:58:06.776Z,12.40
2023-03-04T03:00:33.540Z,12.30
2023-03-04T03:03:00.279Z,12.20
2023-03-04T03:05:30.917Z,12.10
2023-03-04T03:07:57.676Z,12.30
2023-03-04T03:10:25.214Z,12.60
2023-03-04T03:12:52.080Z,12.70
2023-03-04T03:15:20.019Z,12.90
2023-03-04T03:17:46.938Z,12.80
2023-03-04T03:20:15.241Z,12.50
2023-03-04T03:22:42.233Z,12.40
2023-03-04T03:25:11.747Z,12.10
2023-03-04T03:27:38.635Z,12.10
2023-03-04T03:30:07.238Z,12.30
2023-03-04T03:32:36.379Z,12.20
2023-03-04T03:35:03.802Z,12.50
2023-03-04T03:37:30.515Z,12.50
2023-03-04T03:39:57.094Z,12.50
2023-03-04T03:42:23.692Z,12.40
2023-03-04T03:44:50.596Z,12.20
2023-03-04T03:47:17.238Z,12.20
2023-03-04T03:49:43.883Z,12.40
2023-03-04T03:52:11.245Z,11.90
2023-03-04T03:54:38.020Z,11.80
2023-03-04T03:57:04.661Z,12.10
2023-03-04T03:59:31.345Z,12.30
2023-03-04T04:01:58.045Z,12.40
2023-03-04T04:04:24.705Z,12.00
2023-03-04T04:06:51.325Z,12.20
2023-03-04T04:09:17.905Z,12.40
2023-03-04T04:11:44.544Z,12.70
2023-03-04T04:14:14.597Z,12.80
2023-03-04T04:16:41.547Z,12.50
2023-03-04T04:19:09.912Z,12.70
2023-03-04T04:21:36.503Z,12.50
2023-03-04T04:24:03.202Z,11.80
2023-03-04T04:26:29.840Z,11.80
2023-03-04T04:28:56.467Z,11.70
2023-03-04T04:31:23.115Z,12.00
2023-03-04T04:33:49.707Z,12.20
2023-03-04T04:36:16.502Z,12.40
2023-03-04T04:38:43.579Z,12.70
2023-03-04T04:41:25.803Z,12.60
2023-03-04T04:43:52.482Z,12.40
2023-03-04T04:46:19.533Z,12.70
2023-03-04T04:48:46.364Z,13.00
2023-03-04T04:51:13.351Z,13.10
2023-03-04T04:53:40.654Z,12.80
2023-03-04T04:56:17.769Z,12.70
2023-03-04T04:58:45.297Z,12.50
2023-03-04T05:01:12.325Z,12.50
2023-03-04T05:03:39.346Z,12.60
2023-03-04T05:06:07.927Z,12.40
2023-03-04T05:08:35.562Z,12.40
2023-03-04T05:11:03.242Z,12.70
2023-03-04T05:13:29.890Z,12.30
2023-03-04T05:15:57.125Z,11.80
2023-03-04T05:18:25.513Z,11.60
2023-03-04T05:20:53.413Z,11.60
2023-03-04T05:23:20.176Z,11.70
2023-03-04T05:25:47.228Z,11.80
2023-03-04T05:28:14.805Z,11.70
2023-03-04T05:30:43.656Z,11.80
2023-03-04T05:33:11.260Z,11.60
2023-03-04T05:35:40.523Z,11.40
2023-03-04T05:38:09.335Z,11.40
2023-03-04T05:40:36.754Z,11.90
2023-03-04T05:43:03.523Z,12.20
2023-03-04T05:45:30.218Z,12.20
2023-03-04T05:47:57.080Z,12.10
2023-03-04T05:50:24.035Z,12.20
2023-03-04T05:52:53.170Z,12.40
2023-03-04T05:55:20.184Z,12.50
2023-03-04T05:57:47.496Z,12.50
2023-03-04T06:00:16.099Z,12.60
2023-03-04T06:02:44.068Z,12.50
2023-03-04T06:05:13.747Z,12.80
2023-03-04T06:07:40.681Z,12.90
2023-03-04T06:10:07.733Z,12.80
2023-03-04T06:12:34.582Z,12.90
2023-03-04T06:15:02.725Z,13.10
2023-03-04T06:17:30.235Z,13.00
2023-03-04T06:19:56.931Z,13.30
2023-03-04T06:22:23.648Z,13.30
2023-03-04T06:24:50.263Z,13.20
2023-03-04T06:27:16.938Z,13.10
2023-03-04T06:29:43.604Z,13.10
2023-03-04T06:32:10.207Z,13.40
2023-03-04T06:34:37.227Z,13.20
2023-03-04T06:37:03.978Z,13.10
2023-03-04T06:39:30.601Z,13.20
2023-03-04T06:41:57.189Z,13.40
2023-03-04T06:44:23.876Z,13.20
2023-03-04T06:46:50.541Z,13.20
2023-03-04T06:49:17.255Z,13.10
2023-03-04T06:51:43.820Z,13.20
2023-03-04T06:54:10.695Z,13.30
2023-03-04T06:56:37.280Z,13.10
2023-03-04T06:59:03.917Z,13.10
2023-03-04T07:01:30.614Z,13.30
2023-03-04T07:03:57.904Z,13.10
2023-03-04T07:06:27.693Z,13.30
2023-03-04T07:08:54.694Z,13.20
2023-03-04T07:11:22.113Z,13.10
2023-03-04T07:13:49.542Z,13.10
2023-03-04T07:16:22.033Z,13.30
2023-03-04T07:18:49.438Z,13.20
2023-03-04T07:21:17.442Z,13.30
2023-03-04T07:23:44.371Z,13.30
2023-03-04T07:26:11.227Z,13.40
2023-03-04T07:28:38.437Z,13.50
2023-03-04T07:31:09.030Z,13.50
2023-03-04T07:33:35.663Z,13.40
2023-03-04T07:36:02.279Z,13.50
2023-03-04T07:38:28.893Z,13.50
2023-03-04T07:40:57.676Z,13.40
2023-03-04T07:43:24.504Z,13.30
2023-03-04T07:45:51.270Z,13.30
2023-03-04T07:48:17.909Z,13.20
2023-03-04T07:50:44.521Z,13.10
2023-03-04T07:53:11.110Z,13.10
2023-03-04T07:55:37.709Z,13.10
2023-03-04T07:58:04.357Z,13.00
2023-03-04T08:00:30.947Z,13.00
2023-03-04T08:02:57.527Z,12.40
2023-03-04T08:05:24.220Z,12.20
2023-03-04T08:07:50.823Z,12.10
2023-03-04T08:10:17.517Z,12.40
2023-03-04T08:12:44.131Z,12.90
2023-03-04T08:15:11.263Z,13.00
2023-03-04T08:17:38.148Z,12.80
2023-03-04T08:20:05.119Z,12.90
2023-03-04T08:22:31.686Z,13.10
2023-03-04T08:24:58.292Z,13.20
2023-03-04T08:27:24.897Z,13.00
2023-03-04T08:29:51.541Z,13.00
2023-03-04T08:32:18.269Z,12.80
2023-03-04T08:34:45.045Z,13.00
2023-03-04T08:37:11.634Z,13.30
2023-03-04T08:39:38.278Z,13.30
2023-03-04T08:42:05.009Z,13.40
2023-03-04T08:44:31.640Z,13.40
2023-03-04T08:46:58.313Z,13.10
2023-03-04T08:49:24.886Z,13.20
2023-03-04T08:51:51.535Z,13.10
2023-03-04T08:54:18.172Z,13.40
2023-03-04T08:56:44.835Z,13.40
2023-03-04T08:59:11.464Z,13.40
2023-03-04T09:01:38.161Z,13.40
2023-03-04T09:04:05.160Z,13.30
2023-03-04T09:06:31.786Z,13.40
2023-03-04T09:08:59.396Z,13.50
2023-03-04T09:11:25.991Z,13.50
2023-03-04T09:13:53.313Z,13.50
2023-03-04T09:16:20.176Z,13.50
2023-03-04T09:18:46.971Z,13.40
2023-03-04T09:21:13.654Z,13.20
2023-03-04T09:23:40.556Z,13.30
2023-03-04T09:26:20.771Z,13.40
2023-03-04T09:28:51.468Z,13.30
2023-03-04T09:31:18.104Z,13.50
2023-03-04T09:33:45.108Z,13.50
2023-03-04T09:36:13.411Z,13.50
2023-03-04T09:38:41.220Z,13.50
2023-03-04T09:41:10.718Z,13.40
2023-03-04T09:43:39.760Z,13.60
2023-03-04T09:46:16.545Z,13.70
2023-03-04T09:48:51.730Z,13.70
2023-03-04T09:51:40.030Z,13.50
2023-03-04T09:54:09.840Z,13.50
2023-03-04T09:56:41.080Z,13.10
2023-03-04T09:59:29.791Z,12.60
2023-03-04T10:01:59.342Z,12.50
2023-03-04T10:04:44.296Z,12.20
2023-03-04T10:07:21.192Z,12.60
2023-03-04T10:09:55.850Z,12.80
2023-03-04T10:12:30.141Z,12.30
2023-03-04T10:15:04.311Z,12.30
2023-03-04T10:17:40.243Z,12.10
2023-03-04T10:20:23.501Z,12.10
2023-03-04T10:22:56.186Z,12.00
2023-03-04T10:25:26.524Z,11.80
2023-03-04T10:28:18.750Z,11.80
2023-03-04T10:30:57.286Z,11.60
2023-03-04T10:33:30.087Z,11.50
2023-03-04T10:36:32.906Z,11.80
2023-03-04T10:39:05.370Z,11.60
2023-03-04T10:41:32.746Z,11.50
2023-03-04T10:44:04.103Z,11.30
2023-03-04T10:46:32.016Z,11.30
2023-03-04T10:48:59.217Z,11.70
2023-03-04T10:51:28.456Z,12.10
2023-03-04T10:54:07.599Z,12.20
2023-03-04T10:56:39.028Z,12.50
2023-03-04T10:59:41.646Z,12.80
2023-03-04T11:02:22.939Z,12.60
2023-03-04T11:04:55.782Z,12.60
2023-03-04T11:07:24.988Z,12.20
2023-03-04T11:09:53.523Z,12.50
2023-03-04T11:12:31.271Z,12.70
2023-03-04T11:14:58.163Z,13.00
2023-03-04T11:17:41.879Z,12.70
2023-03-04T11:20:18.328Z,12.50
2023-03-04T11:22:46.412Z,12.80
2023-03-04T11:25:34.675Z,12.60
2023-03-04T11:28:24.334Z,12.80
2023-03-04T11:30:57.987Z,12.60
2023-03-04T11:33:53.486Z,12.40
2023-03-04T11:36:41.282Z,12.30
2023-03-04T11:39:23.261Z,12.20
2023-03-04T11:42:18.963Z,12.90
2023-03-04T11:44:45.620Z,12.80
2023-03-04T11:47:36.546Z,12.40
2023-03-04T11:50:45.578Z,12.70
2023-03-04T11:53:40.253Z,12.80
2023-03-04T11:56:17.120Z,12.50
2023-03-04T11:59:17.798Z,12.70
2023-03-04T12:01:53.178Z,12.60
2023-03-04T12:04:27.503Z,12.60
2023-03-04T12:07:38.053Z,12.40
2023-03-04T12:10:30.223Z,12.70
2023-03-04T12:13:38.488Z,12.60
2023-03-04T12:16:42.770Z,12.20
2023-03-04T12:19:38.010Z,12.20
2023-03-04T12:22:20.529Z,12.30
2023-03-04T12:25:09.412Z,12.20
2023-03-04T12:27:45.565Z,12.20
2023-03-04T12:30:55.217Z,11.90
2023-03-04T12:33:45.248Z,11.90
2023-03-04T12:36:32.895Z,11.70
2023-03-04T12:39:07.361Z,12.00
2023-03-04T12:42:15.965Z,11.70
2023-03-04T12:44:53.345Z,11.50
2023-03-04T12:47:25.999Z,11.60
2023-03-04T12:50:25.694Z,11.50
2023-03-04T12:53:29.711Z,11.60
2023-03-04T12:55:57.810Z,11.70
2023-03-04T12:58:28.514Z,11.70
2023-03-04T13:01:16.733Z,12.10
2023-03-04T13:03:56.685Z,11.80
2023-03-04T13:06:45.190Z,11.60
2023-03-04T13:09:24.257Z,11.60
2023-03-04T13:12:02.088Z,11.90
2023-03-04T13:14:30.338Z,12.20
2023-03-04T13:17:18.201Z,12.40
2023-03-04T13:19:57.115Z,12.10
2023-03-04T13:22:42.990Z,12.20
2023-03-04T13:25:33.278Z,12.30
2023-03-04T13:28:02.860Z,12.50
2023-03-04T13:30:32.515Z,12.60
2023-03-04T13:33:11.251Z,12.40
2023-03-04T13:35:47.086Z,12.50
2023-03-04T13:38:32.434Z,12.60
2023-03-04T13:41:07.984Z,13.10
2023-03-04T13:43:48.028Z,13.20
2023-03-04T13:46:20.883Z,12.90
2023-03-04T13:48:50.951Z,12.60
2023-03-04T13:51:37.622Z,12.70
2023-03-04T13:54:14.219Z,12.90
2023-03-04T13:56:47.505Z,12.70
2023-03-04T13:59:22.242Z,12.20
2023-03-04T14:01:59.802Z,12.10
2023-03-04T14:04:35.624Z,12.00
2023-03-04T14:07:17.928Z,12.50
2023-03-04T14:10:14.885Z,12.50
2023-03-04T14:12:46.452Z,12.00
2023-03-04T14:15:13.034Z,12.30
2023-03-04T14:17:41.313Z,12.40
2023-03-04T14:20:23.994Z,12.70
2023-03-04T14:22:50.699Z,12.80
2023-03-04T14:25:23.379Z,12.70
2023-03-04T14:28:01.450Z,12.30
2023-03-04T14:30:41.634Z,12.40
2023-03-04T14:33:15.765Z,12.30
2023-03-04T14:35:47.958Z,12.50
2023-03-04T14:38:33.765Z,12.20
2023-03-04T14:41:20.648Z,12.00
2023-03-04T14:44:02.222Z,11.90
2023-03-04T14:47:04.650Z,11.80
2023-03-04T14:49:36.229Z,11.80
2023-03-04T14:52:04.439Z,11.60
2023-03-04T14:54:37.422Z,11.70
2023-03-04T14:57:26.418Z,12.10
2023-03-04T14:59:54.168Z,12.50
2023-03-04T15:02:31.383Z,12.20
2023-03-04T15:05:01.186Z,11.80
2023-03-04T15:07:38.273Z,12.30
2023-03-04T15:10:08.617Z,12.30
2023-03-04T15:12:38.048Z,12.10
2023-03-04T15:15:35.892Z,12.20
2023-03-04T15:18:26.064Z,12.10
2023-03-04T15:20:54.843Z,12.10
2023-03-04T15:23:21.518Z,12.00
2023-03-04T15:25:57.966Z,11.90
2023-03-04T15:28:26.108Z,11.80
2023-03-04T15:30:53.421Z,11.40
2023-03-04T15:33:21.316Z,11.40
2023-03-04T15:36:19.119Z,11.70
2023-03-04T15:38:48.791Z,11.80
2023-03-04T15:41:21.380Z,11.70
2023-03-04T15:43:48.127Z,12.00
2023-03-04T15:46:16.968Z,11.80
2023-03-04T15:48:45.607Z,11.80
2023-03-04T15:51:19.734Z,12.10
2023-03-04T15:53:51.983Z,12.10
2023-03-04T15:56:22.026Z,11.90
2023-03-04T15:58:57.049Z,11.70
2023-03-04T16:01:24.665Z,11.60
2023-03-04T16:03:53.480Z,11.80
2023-03-04T16:06:24.458Z,11.60
2023-03-04T16:08:52.252Z,11.70
2023-03-04T16:11:32.057Z,11.90
2023-03-04T16:13:58.676Z,11.90
2023-03-04T16:16:25.455Z,11.60
2023-03-04T16:18:52.112Z,11.40
2023-03-04T16:21:23.123Z,11.10
2023-03-04T16:23:51.666Z,11.10
2023-03-04T16:26:20.569Z,10.90
2023-03-04T16:28:47.390Z,10.90
2023-03-04T16:31:15.224Z,10.70
2023-03-04T16:33:41.988Z,10.70
2023-03-04T16:36:24.370Z,10.70
2023-03-04T16:38:52.393Z,11.50
2023-03-04T16:41:24.689Z,11.70
2023-03-04T16:43:51.463Z,11.60
2023-03-04T16:46:18.185Z,11.80
2023-03-04T16:48:46.712Z,11.80
2023-03-04T16:51:16.149Z,11.50
2023-03-04T16:53:47.844Z,11.40
2023-03-04T16:56:17.632Z,11.70
2023-03-04T16:58:44.598Z,11.80
2023-03-04T17:01:26.363Z,11.40
2023-03-04T17:03:54.777Z,12.30
2023-03-04T17:06:22.680Z,12.20
2023-03-04T17:08:49.476Z,11.80
2023-03-04T17:11:19.380Z,11.90
2023-03-04T17:13:46.234Z,12.40
2023-03-04T17:16:13.075Z,12.00
2023-03-04T17:18:39.799Z,11.50
2023-03-04T17:21:10.371Z,11.40
2023-03-04T17:23:37.267Z,11.70
2023-03-04T17:26:05.389Z,11.70
2023-03-04T17:28:32.848Z,12.00
2023-03-04T17:30:59.634Z,12.20
2023-03-04T17:33:26.273Z,12.10
2023-03-04T17:35:53.146Z,11.90
2023-03-04T17:38:19.796Z,11.90
2023-03-04T17:40:46.455Z,11.80
2023-03-04T17:43:13.532Z,11.70
2023-03-04T17:45:41.998Z,11.80
2023-03-04T17:48:14.949Z,11.90
2023-03-04T17:50:51.540Z,12.10
2023-03-04T17:53:19.036Z,11.70
2023-03-04T17:56:05.815Z,11.50
2023-03-04T17:58:34.965Z,11.40
2023-03-04T18:01:11.128Z,11.30
2023-03-04T18:03:37.828Z,11.50
2023-03-04T18:06:04.737Z,11.50
2023-03-04T18:08:31.386Z,11.10
2023-03-04T18:10:58.007Z,11.20
2023-03-04T18:13:24.603Z,11.10
2023-03-04T18:15:51.327Z,11.20
2023-03-04T18:18:17.904Z,11.40
2023-03-04T18:20:44.577Z,11.30
2023-03-04T18:23:11.213Z,11.40
2023-03-04T18:25:37.831Z,11.80
2023-03-04T18:28:04.603Z,11.80
2023-03-04T18:30:32.078Z,11.90
2023-03-04T18:32:59.904Z,12.40
2023-03-04T18:35:26.735Z,11.90
2023-03-04T18:37:53.444Z,11.80
2023-03-04T18:40:21.078Z,11.80
2023-03-04T18:42:47.806Z,11.90
2023-03-04T18:45:15.747Z,12.10
2023-03-04T18:47:46.862Z,12.10
2023-03-04T18:50:14.329Z,12.10
2023-03-04T18:52:41.256Z,12.00
2023-03-04T18:55:08.382Z,11.70
2023-03-04T18:57:35.086Z,12.20
2023-03-04T19:00:04.587Z,12.00
2023-03-04T19:02:31.178Z,12.40
2023-03-04T19:05:03.013Z,12.10
2023-03-04T19:07:29.662Z,11.80
2023-03-04T19:09:56.253Z,11.70
2023-03-04T19:12:23.108Z,12.20
2023-03-04T19:14:49.691Z,12.30
2023-03-04T19:17:16.523Z,12.10
2023-03-04T19:19:43.152Z,12.30
2023-03-04T19:22:09.888Z,12.20
2023-03-04T19:24:36.521Z,11.60
2023-03-04T19:27:05.221Z,11.10
2023-03-04T19:29:31.998Z,11.30
2023-03-04T19:31:58.921Z,11.70
2023-03-04T19:34:25.604Z,11.60
2023-03-04T19:36:52.199Z,11.90
2023-03-04T19:39:18.802Z,11.80
2023-03-04T19:41:45.466Z,11.30
2023-03-04T19:44:12.050Z,11.10
2023-03-04T19:46:38.616Z,11.50
2023-03-04T19:49:05.766Z,11.30
2023-03-04T19:51:33.047Z,11.30
2023-03-04T19:54:00.283Z,11.30
2023-03-04T19:56:26.957Z,11.40
2023-03-04T19:58:57.032Z,11.50
2023-03-04T20:01:28.211Z,11.40
2023-03-04T20:04:00.043Z,11.40
2023-03-04T20:06:27.084Z,11.50
2023-03-04T20:08:57.971Z,11.30
2023-03-04T20:11:25.141Z,11.20
2023-03-04T20:13:51.806Z,11.10
2023-03-04T20:16:18.487Z,10.80
2023-03-04T20:18:45.402Z,11.60
2023-03-04T20:21:12.497Z,11.30
2023-03-04T20:23:39.100Z,11.00
2023-03-04T20:26:05.756Z,11.00
2023-03-04T20:28:32.862Z,11.20
2023-03-04T20:31:24.197Z,11.10
2023-03-04T20:33:52.256Z,11.10
2023-03-04T20:36:24.827Z,10.70
2023-03-04T20:39:01.519Z,10.70
2023-03-04T20:41:28.931Z,10.60
2023-03-04T20:43:55.547Z,11.20
2023-03-04T20:46:44.393Z,11.00
2023-03-04T20:49:15.113Z,11.20
2023-03-04T20:51:42.247Z,10.90
2023-03-04T20:54:09.511Z,10.80
2023-03-04T20:56:37.617Z,10.80
2023-03-04T20:59:06.765Z,10.70
2023-03-04T21:01:33.777Z,10.60
2023-03-04T21:04:01.684Z,11.00
2023-03-04T21:06:29.212Z,11.30
2023-03-04T21:08:59.655Z,11.00
2023-03-04T21:11:26.609Z,10.90
2023-03-04T21:13:56.173Z,10.90
2023-03-04T21:16:25.836Z,10.90
2023-03-04T21:18:53.290Z,10.80
2023-03-04T21:21:23.366Z,10.70
2023-03-04T21:23:51.440Z,10.70
2023-03-04T21:26:19.331Z,10.70
2023-03-04T21:28:46.736Z,10.90
2023-03-04T21:31:25.794Z,10.70
2023-03-04T21:33:54.623Z,10.60
2023-03-04T21:36:22.029Z,10.60
2023-03-04T21:38:48.868Z,10.50
2023-03-04T21:41:21.416Z,10.60
2023-03-04T21:43:48.758Z,10.60
2023-03-04T21:46:16.814Z,10.50
2023-03-04T21:48:44.818Z,10.20
2023-03-04T21:51:14.138Z,10.30
2023-03-04T21:53:41.074Z,10.10
2023-03-04T21:56:07.705Z,10.00
2023-03-04T21:58:35.165Z,10.10
2023-03-04T22:01:09.943Z,10.20
2023-03-04T22:03:36.656Z,10.60
2023-03-04T22:06:07.669Z,10.90
2023-03-04T22:08:34.626Z,10.60
2023-03-04T22:11:06.242Z,10.70
2023-03-04T22:13:33.360Z,10.80
2023-03-04T22:16:00.306Z,11.20
2023-03-04T22:18:27.377Z,11.30
2023-03-04T22:21:01.025Z,11.20
2023-03-04T22:23:28.248Z,11.60
2023-03-04T22:25:55.595Z,11.60
2023-03-04T22:28:25.004Z,11.10
2023-03-04T22:30:51.644Z,10.90
2023-03-04T22:33:18.249Z,11.10
2023-03-04T22:35:44.968Z,11.00
2023-03-04T22:38:11.651Z,10.80
2023-03-04T22:40:38.240Z,10.90
2023-03-04T22:43:04.844Z,11.80
2023-03-04T22:45:32.780Z,11.90
2023-03-04T22:47:59.837Z,12.00
2023-03-04T22:50:26.886Z,11.40
2023-03-04T22:52:53.535Z,11.20
2023-03-04T22:55:21.672Z,10.80
2023-03-04T22:57:48.838Z,10.60
2023-03-04T23:00:22.354Z,10.50
2023-03-04T23:02:50.206Z,10.40
2023-03-04T23:05:18.542Z,10.40
2023-03-04T23:07:45.152Z,10.30
2023-03-04T23:10:15.072Z,10.30
2023-03-04T23:12:41.757Z,10.30
2023-03-04T23:15:09.472Z,10.30
2023-03-04T23:17:36.090Z,10.40
2023-03-04T23:20:03.420Z,10.20
2023-03-04T23:22:30.344Z,10.10
2023-03-04T23:24:57.660Z,10.00
2023-03-04T23:27:25.397Z,10.10
2023-03-04T23:29:52.601Z,10.00
2023-03-04T23:32:19.332Z,9.80
2023-03-04T23:34:45.974Z,9.70
2023-03-04T23:37:12.583Z,9.70
2023-03-04T23:39:39.232Z,9.80
2023-03-04T23:42:05.974Z,9.80
2023-03-04T23:44:32.639Z,9.70
2023-03-04T23:46:59.206Z,9.70
2023-03-04T23:49:25.816Z,9.80
2023-03-04T23:51:52.444Z,9.90
2023-03-04T23:54:19.078Z,10.10
2023-03-04T23:56:45.702Z,10.20
2023-03-04T23:59:12.499Z,10.00
